createdAt,value
2019-02-15T00:00:55.030Z,6.80
2019-02-15T00:03:24.220Z,11.10
2019-02-15T00:05:57.776Z,9.70
2019-02-15T00:08:29.429Z,7.40
2019-02-15T00:10:59.435Z,5.73
2019-02-15T00:13:29.248Z,9.70
2019-02-15T00:15:58.354Z,7.20
2019-02-15T00:18:40.075Z,9.40
2019-02-15T00:21:17.636Z,7.43
2019-02-15T00:23:46.952Z,9.20
2019-02-15T00:26:16.874Z,12.90
2019-02-15T00:28:46.255Z,9.17
2019-02-15T00:31:19.205Z,6.93
2019-02-15T00:33:49.770Z,8.60
2019-02-15T00:36:20.304Z,7.73
2019-02-15T00:38:50.688Z,8.70
2019-02-15T00:41:21.340Z,7.33
2019-02-15T00:43:50.652Z,9.40
2019-02-15T00:46:37.191Z,8.73
2019-02-15T00:49:08.141Z,6.80
2019-02-15T00:52:05.964Z,7.33
2019-02-15T00:55:10.396Z,6.90
2019-02-15T00:58:03.683Z,7.27
2019-02-15T01:00:42.747Z,7.00
2019-02-15T01:03:30.068Z,7.83
2019-02-15T01:06:24.123Z,7.93
2019-02-15T01:09:16.112Z,5.67
2019-02-15T01:11:59.387Z,4.50
2019-02-15T01:14:28.953Z,6.53
2019-02-15T01:16:58.775Z,4.57
2019-02-15T01:19:28.381Z,5.03
2019-02-15T01:22:00.853Z,6.70
2019-02-15T01:24:31.386Z,5.73
2019-02-15T01:27:13.263Z,5.43
2019-02-15T01:30:10.096Z,4.53
2019-02-15T01:33:09.291Z,3.87
2019-02-15T01:36:02.645Z,5.03
2019-02-15T01:39:08.150Z,5.00
2019-02-15T01:41:47.560Z,4.93
2019-02-15T01:44:44.816Z,3.53
2019-02-15T01:47:26.816Z,3.83
2019-02-15T01:49:57.115Z,6.23
2019-02-15T01:52:26.110Z,8.03
2019-02-15T01:54:55.636Z,6.20
2019-02-15T01:57:26.272Z,5.50
2019-02-15T01:59:56.072Z,5.60
2019-02-15T02:02:29.775Z,5.50
2019-02-15T02:05:00.328Z,3.90
2019-02-15T02:07:30.237Z,5.17
2019-02-15T02:09:59.532Z,5.77
2019-02-15T02:12:31.238Z,4.73
2019-02-15T02:15:00.748Z,3.90
2019-02-15T02:17:32.454Z,5.20
2019-02-15T02:20:14.340Z,4.77
2019-02-15T02:22:43.502Z,3.03
2019-02-15T02:25:12.385Z,5.70
2019-02-15T02:27:41.200Z,4.80
2019-02-15T02:30:11.245Z,5.63
2019-02-15T02:32:40.211Z,6.03
2019-02-15T02:35:10.048Z,7.57
2019-02-15T02:37:39.366Z,5.40
2019-02-15T02:40:08.859Z,8.83
2019-02-15T02:42:39.131Z,6.17
2019-02-15T02:45:08.711Z,4.30
2019-02-15T02:47:38.457Z,4.83
2019-02-15T02:50:07.702Z,3.40
2019-02-15T02:52:37.135Z,7.07
2019-02-15T02:55:06.133Z,4.97
2019-02-15T02:57:35.676Z,5.43
2019-02-15T03:00:05.334Z,8.90
2019-02-15T03:02:34.605Z,3.13
2019-02-15T03:05:03.942Z,5.23
2019-02-15T03:07:33.326Z,4.47
2019-02-15T03:10:02.649Z,4.17
2019-02-15T03:12:31.717Z,9.63
2019-02-15T03:15:02.564Z,5.33
2019-02-15T03:17:31.861Z,3.93
2019-02-15T03:20:01.997Z,4.80
2019-02-15T03:22:31.369Z,5.03
2019-02-15T03:25:00.663Z,5.20
2019-02-15T03:27:29.787Z,4.63
2019-02-15T03:29:58.748Z,8.97
2019-02-15T03:32:29.260Z,5.30
2019-02-15T03:34:58.604Z,4.80
2019-02-15T03:37:45.968Z,7.20
2019-02-15T03:40:24.797Z,6.30
2019-02-15T03:42:54.474Z,5.57
2019-02-15T03:45:23.837Z,6.30
2019-02-15T03:47:53.084Z,8.20
2019-02-15T03:50:21.933Z,8.63
2019-02-15T03:52:51.565Z,6.27
2019-02-15T03:55:20.957Z,6.10
2019-02-15T03:57:50.357Z,4.77
2019-02-15T04:00:19.420Z,4.70
2019-02-15T04:02:48.941Z,5.57
2019-02-15T04:05:18.278Z,3.83
2019-02-15T04:07:47.882Z,5.37
2019-02-15T04:10:17.449Z,6.90
2019-02-15T04:12:46.690Z,4.70
2019-02-15T04:15:16.158Z,8.33
2019-02-15T04:17:45.364Z,8.80
2019-02-15T04:20:14.691Z,4.80
2019-02-15T04:22:44.183Z,6.00
2019-02-15T04:25:14.014Z,6.13
2019-02-15T04:27:42.799Z,5.40
2019-02-15T04:30:12.567Z,5.13
2019-02-15T04:32:41.870Z,8.37
2019-02-15T04:35:10.891Z,5.97
2019-02-15T04:37:40.621Z,7.63
2019-02-15T04:40:10.030Z,6.33
2019-02-15T04:42:39.811Z,4.93
2019-02-15T04:45:09.145Z,6.13
2019-02-15T04:47:38.103Z,7.50
2019-02-15T04:50:08.449Z,7.80
2019-02-15T04:52:38.552Z,5.87
2019-02-15T04:55:07.618Z,7.93
2019-02-15T04:57:37.089Z,7.93
2019-02-15T05:00:06.710Z,7.80
2019-02-15T05:02:35.628Z,6.90
2019-02-15T05:05:05.341Z,5.30
2019-02-15T05:07:35.213Z,7.90
2019-02-15T05:10:04.617Z,6.30
2019-02-15T05:12:33.584Z,7.67
2019-02-15T05:15:02.981Z,5.20
2019-02-15T05:17:32.143Z,5.90
2019-02-15T05:20:04.641Z,6.33
2019-02-15T05:22:33.640Z,6.47
2019-02-15T05:25:03.049Z,4.93
2019-02-15T05:27:32.823Z,5.57
2019-02-15T05:30:02.560Z,10.40
2019-02-15T05:32:31.505Z,7.40
2019-02-15T05:35:01.350Z,5.87
2019-02-15T05:37:30.460Z,4.37
2019-02-15T05:40:00.038Z,6.43
2019-02-15T05:42:29.448Z,6.63
2019-02-15T05:45:03.880Z,7.07
2019-02-15T05:47:30.388Z,5.37
2019-02-15T05:49:59.950Z,10.60
2019-02-15T05:52:30.152Z,7.23
2019-02-15T05:54:59.317Z,8.30
2019-02-15T05:57:28.688Z,4.70
2019-02-15T05:59:58.020Z,6.87
2019-02-15T06:02:27.261Z,9.70
2019-02-15T06:04:56.839Z,6.87
2019-02-15T06:07:26.431Z,7.40
2019-02-15T06:09:55.612Z,6.30
2019-02-15T06:12:25.236Z,9.50
2019-02-15T06:14:54.542Z,12.93
2019-02-15T06:17:23.545Z,6.97
2019-02-15T06:19:52.940Z,10.10
2019-02-15T06:22:22.233Z,10.40
2019-02-15T06:24:52.041Z,9.27
2019-02-15T06:27:21.694Z,6.53
2019-02-15T06:29:50.588Z,6.90
2019-02-15T06:32:19.780Z,6.87
2019-02-15T06:34:49.274Z,10.33
2019-02-15T06:37:18.628Z,7.67
2019-02-15T06:39:47.798Z,10.87
2019-02-15T06:42:17.836Z,9.13
2019-02-15T06:44:47.476Z,8.00
2019-02-15T06:47:16.971Z,14.97
2019-02-15T06:49:45.908Z,19.13
2019-02-15T06:52:15.797Z,10.30
2019-02-15T06:54:45.304Z,11.10
2019-02-15T06:57:14.204Z,12.53
2019-02-15T07:00:11.417Z,11.90
2019-02-15T07:02:48.475Z,13.40
2019-02-15T07:05:25.726Z,15.90
2019-02-15T07:07:55.612Z,11.23
2019-02-15T07:10:24.635Z,12.43
2019-02-15T07:12:54.135Z,22.73
2019-02-15T07:15:23.171Z,12.43
2019-02-15T07:17:52.327Z,15.97
2019-02-15T07:20:21.682Z,9.57
2019-02-15T07:22:51.660Z,8.23
2019-02-15T07:25:20.918Z,6.27
2019-02-15T07:27:50.227Z,8.97
2019-02-15T07:30:19.726Z,7.53
2019-02-15T07:32:49.335Z,7.67
2019-02-15T07:35:18.651Z,8.60
2019-02-15T07:37:48.384Z,5.83
2019-02-15T07:40:17.582Z,5.97
2019-02-15T07:42:46.544Z,7.60
2019-02-15T07:45:17.771Z,7.07
2019-02-15T07:47:47.111Z,7.03
2019-02-15T07:50:15.968Z,9.53
2019-02-15T07:52:45.396Z,8.00
2019-02-15T07:55:15.241Z,6.73
2019-02-15T07:57:45.509Z,6.60
2019-02-15T08:00:14.915Z,8.00
2019-02-15T08:02:44.468Z,6.43
2019-02-15T08:05:13.420Z,6.90
2019-02-15T08:07:42.708Z,7.63
2019-02-15T08:10:12.007Z,6.60
2019-02-15T08:12:41.104Z,7.70
2019-02-15T08:15:10.103Z,7.93
2019-02-15T08:17:39.193Z,8.50
2019-02-15T08:20:09.808Z,12.00
2019-02-15T08:22:39.348Z,10.20
2019-02-15T08:25:08.340Z,9.23
2019-02-15T08:27:37.365Z,8.17
2019-02-15T08:30:07.187Z,10.57
2019-02-15T08:32:36.743Z,9.40
2019-02-15T08:35:06.540Z,8.90
2019-02-15T08:37:36.005Z,9.33
2019-02-15T08:40:05.496Z,11.70
2019-02-15T08:42:34.607Z,11.00
2019-02-15T08:45:04.428Z,13.67
2019-02-15T08:47:34.069Z,11.63
2019-02-15T08:50:03.040Z,11.80
2019-02-15T08:52:32.148Z,11.23
2019-02-15T08:55:03.208Z,11.00
2019-02-15T08:57:32.315Z,11.03
2019-02-15T09:00:01.450Z,10.20
2019-02-15T09:02:31.303Z,9.57
2019-02-15T09:05:04.121Z,8.50
2019-02-15T09:07:33.829Z,8.80
2019-02-15T09:10:03.404Z,10.63
2019-02-15T09:12:32.191Z,7.43
2019-02-15T09:15:04.492Z,7.60
2019-02-15T09:17:33.787Z,8.03
2019-02-15T09:20:02.919Z,8.50
2019-02-15T09:22:32.364Z,7.70
2019-02-15T09:25:03.869Z,7.53
2019-02-15T09:27:43.921Z,7.43
2019-02-15T09:30:13.579Z,7.60
2019-02-15T09:32:42.487Z,7.30
2019-02-15T09:35:11.415Z,6.67
2019-02-15T09:37:40.966Z,7.00
2019-02-15T09:40:10.088Z,7.60
2019-02-15T09:42:39.771Z,7.77
2019-02-15T09:45:10.468Z,8.50
2019-02-15T09:47:39.730Z,6.43
2019-02-15T09:50:09.735Z,5.70
2019-02-15T09:52:40.335Z,6.93
2019-02-15T09:55:09.672Z,6.23
2019-02-15T09:57:39.265Z,5.67
2019-02-15T10:00:08.363Z,6.63
2019-02-15T10:02:37.153Z,7.93
2019-02-15T10:05:06.451Z,5.40
2019-02-15T10:07:36.508Z,5.70
2019-02-15T10:10:05.936Z,5.53
2019-02-15T10:12:35.152Z,5.37
2019-02-15T10:15:04.908Z,5.73
2019-02-15T10:17:53.235Z,4.93
2019-02-15T10:20:22.312Z,5.43
2019-02-15T10:22:51.436Z,5.60
2019-02-15T10:25:20.757Z,6.70
2019-02-15T10:27:50.291Z,4.57
2019-02-15T10:30:19.456Z,6.03
2019-02-15T10:32:48.604Z,6.53
2019-02-15T10:35:17.423Z,5.87
2019-02-15T10:37:46.563Z,5.13
2019-02-15T10:40:15.854Z,4.33
2019-02-15T10:42:45.054Z,5.40
2019-02-15T10:45:14.445Z,6.00
2019-02-15T10:47:44.114Z,5.43
2019-02-15T10:50:13.616Z,4.60
2019-02-15T10:52:42.535Z,7.07
2019-02-15T10:55:11.879Z,6.10
2019-02-15T10:57:40.916Z,5.90
2019-02-15T11:00:16.592Z,5.63
2019-02-15T11:02:46.224Z,5.47
2019-02-15T11:05:15.957Z,6.33
2019-02-15T11:07:44.893Z,4.73
2019-02-15T11:10:13.849Z,6.87
2019-02-15T11:12:43.773Z,5.90
2019-02-15T11:15:13.244Z,5.57
2019-02-15T11:17:42.004Z,4.70
2019-02-15T11:20:12.140Z,5.83
2019-02-15T11:22:41.288Z,5.50
2019-02-15T11:25:10.727Z,5.23
2019-02-15T11:27:39.700Z,6.47
2019-02-15T11:30:11.421Z,4.20
2019-02-15T11:32:40.394Z,5.67
2019-02-15T11:35:10.787Z,6.13
2019-02-15T11:37:39.625Z,6.17
2019-02-15T11:40:10.764Z,3.80
2019-02-15T11:42:39.961Z,6.33
2019-02-15T11:45:10.285Z,4.37
2019-02-15T11:47:39.504Z,5.60
2019-02-15T11:50:10.077Z,4.07
2019-02-15T11:52:39.416Z,6.50
2019-02-15T11:55:08.763Z,4.13
2019-02-15T11:57:37.685Z,4.90
2019-02-15T12:00:14.131Z,8.10
2019-02-15T12:02:40.109Z,4.33
2019-02-15T12:05:09.296Z,5.93
2019-02-15T12:07:38.888Z,4.50
2019-02-15T12:10:08.468Z,4.33
2019-02-15T12:12:37.370Z,5.03
2019-02-15T12:15:07.034Z,4.50
2019-02-15T12:17:36.426Z,4.67
2019-02-15T12:20:06.101Z,5.60
2019-02-15T12:22:35.432Z,3.17
2019-02-15T12:25:04.733Z,4.20
2019-02-15T12:27:33.610Z,5.77
2019-02-15T12:30:02.868Z,5.03
2019-02-15T12:32:32.077Z,6.63
2019-02-15T12:35:00.871Z,3.40
2019-02-15T12:37:30.011Z,4.03
2019-02-15T12:40:00.029Z,5.07
2019-02-15T12:42:29.247Z,5.07
2019-02-15T12:44:58.417Z,4.90
2019-02-15T12:47:28.056Z,6.20
2019-02-15T12:49:57.968Z,4.43
2019-02-15T12:52:27.926Z,4.23
2019-02-15T12:54:57.084Z,3.73
2019-02-15T12:57:26.565Z,4.33
2019-02-15T12:59:56.298Z,7.10
2019-02-15T13:02:25.123Z,5.43
2019-02-15T13:04:54.561Z,4.10
2019-02-15T13:07:23.957Z,4.20
2019-02-15T13:09:53.475Z,5.60
2019-02-15T13:12:22.491Z,5.23
2019-02-15T13:14:51.745Z,9.77
2019-02-15T13:17:24.695Z,3.93
2019-02-15T13:19:52.288Z,4.07
2019-02-15T13:22:21.212Z,4.50
2019-02-15T13:24:50.547Z,3.47
2019-02-15T13:27:19.443Z,3.07
2019-02-15T13:29:48.634Z,4.20
2019-02-15T13:32:18.252Z,4.17
2019-02-15T13:34:48.102Z,4.43
2019-02-15T13:37:17.288Z,3.63
2019-02-15T13:39:46.940Z,4.13
2019-02-15T13:42:16.235Z,4.70
2019-02-15T13:44:45.437Z,5.43
2019-02-15T13:47:14.420Z,6.40
2019-02-15T13:49:43.668Z,4.40
2019-02-15T13:52:12.628Z,5.87
2019-02-15T13:54:42.020Z,4.90
2019-02-15T13:57:12.114Z,3.90
2019-02-15T13:59:41.656Z,5.43
2019-02-15T14:02:11.283Z,4.53
2019-02-15T14:04:40.838Z,5.13
2019-02-15T14:07:20.131Z,5.00
2019-02-15T14:09:49.682Z,5.00
2019-02-15T14:12:19.486Z,5.53
2019-02-15T14:14:48.503Z,5.30
2019-02-15T14:17:17.863Z,5.40
2019-02-15T14:19:47.569Z,5.73
2019-02-15T14:22:16.448Z,5.53
2019-02-15T14:24:45.682Z,8.53
2019-02-15T14:27:14.563Z,4.83
2019-02-15T14:29:44.392Z,6.30
2019-02-15T14:32:13.889Z,6.23
2019-02-15T14:34:43.108Z,9.70
2019-02-15T14:37:12.114Z,9.70
2019-02-15T14:39:42.037Z,9.70
2019-02-15T14:42:11.682Z,11.13
2019-02-15T14:44:40.949Z,8.47
2019-02-15T14:47:10.041Z,6.87
2019-02-15T14:49:39.335Z,5.43
2019-02-15T14:52:08.776Z,5.70
2019-02-15T14:54:38.059Z,6.40
2019-02-15T14:57:07.215Z,12.87
2019-02-15T14:59:38.923Z,9.97
2019-02-15T15:02:07.491Z,7.07
2019-02-15T15:04:36.588Z,7.07
2019-02-15T15:07:05.800Z,7.40
2019-02-15T15:09:35.124Z,8.10
2019-02-15T15:12:04.435Z,12.57
2019-02-15T15:14:33.519Z,10.20
2019-02-15T15:17:02.631Z,11.67
2019-02-15T15:19:31.520Z,7.43
2019-02-15T15:22:00.372Z,6.60
2019-02-15T15:24:29.680Z,8.67
2019-02-15T15:26:59.212Z,6.17
2019-02-15T15:29:28.746Z,6.97
2019-02-15T15:31:58.196Z,6.23
2019-02-15T15:34:27.388Z,8.40
2019-02-15T15:36:56.648Z,5.73
2019-02-15T15:39:25.813Z,8.00
2019-02-15T15:41:55.114Z,4.33
2019-02-15T15:44:24.893Z,5.50
2019-02-15T15:46:53.772Z,4.93
2019-02-15T15:49:23.032Z,4.93
2019-02-15T15:51:52.525Z,7.50
2019-02-15T15:54:21.807Z,5.47
2019-02-15T15:56:50.726Z,5.47
2019-02-15T15:59:20.208Z,6.43
2019-02-15T16:01:49.139Z,6.00
2019-02-15T16:04:18.424Z,7.30
2019-02-15T16:06:48.074Z,8.70
2019-02-15T16:09:18.168Z,8.27
2019-02-15T16:11:48.798Z,4.70
2019-02-15T16:14:18.070Z,4.73
2019-02-15T16:16:47.235Z,5.87
2019-02-15T16:19:16.869Z,5.60
2019-02-15T16:21:46.811Z,7.27
2019-02-15T16:24:16.337Z,5.17
2019-02-15T16:26:45.590Z,6.37
2019-02-15T16:29:15.146Z,6.60
2019-02-15T16:31:43.959Z,5.20
2019-02-15T16:34:13.180Z,4.83
2019-02-15T16:36:42.700Z,5.43
2019-02-15T16:39:11.677Z,6.97
2019-02-15T16:41:41.184Z,5.73
2019-02-15T16:44:10.196Z,4.97
2019-02-15T16:46:39.079Z,3.70
2019-02-15T16:49:09.189Z,7.77
2019-02-15T16:51:38.741Z,5.67
2019-02-15T16:54:08.396Z,4.63
2019-02-15T16:56:38.208Z,6.03
2019-02-15T16:59:07.881Z,6.70
2019-02-15T17:01:37.715Z,4.77
2019-02-15T17:04:07.136Z,4.73
2019-02-15T17:06:36.454Z,5.77
2019-02-15T17:09:13.829Z,6.80
2019-02-15T17:11:43.056Z,4.97
2019-02-15T17:14:12.806Z,5.90
2019-02-15T17:16:41.841Z,4.40
2019-02-15T17:19:11.358Z,6.23
2019-02-15T17:21:40.758Z,6.37
2019-02-15T17:24:09.700Z,7.00
2019-02-15T17:26:39.421Z,6.90
2019-02-15T17:29:08.639Z,5.67
2019-02-15T17:31:38.192Z,5.30
2019-02-15T17:34:08.027Z,6.40
2019-02-15T17:36:37.727Z,6.20
2019-02-15T17:39:07.156Z,6.23
2019-02-15T17:41:36.374Z,6.80
2019-02-15T17:44:06.207Z,8.53
2019-02-15T17:46:35.376Z,6.00
2019-02-15T17:49:04.297Z,4.77
2019-02-15T17:51:33.980Z,5.37
2019-02-15T17:54:04.231Z,5.50
2019-02-15T17:56:33.356Z,7.13
2019-02-15T17:59:03.931Z,5.87
2019-02-15T18:01:34.099Z,5.10
2019-02-15T18:04:03.044Z,4.10
2019-02-15T18:06:32.824Z,10.33
2019-02-15T18:09:02.109Z,5.83
2019-02-15T18:11:31.447Z,5.40
2019-02-15T18:14:00.540Z,5.10
2019-02-15T18:16:29.867Z,8.07
2019-02-15T18:18:59.153Z,4.93
2019-02-15T18:21:28.971Z,6.20
2019-02-15T18:23:58.804Z,6.63
2019-02-15T18:26:28.097Z,7.40
2019-02-15T18:28:57.939Z,5.63
2019-02-15T18:31:27.305Z,4.70
2019-02-15T18:33:56.488Z,4.67
2019-02-15T18:36:25.716Z,5.83
2019-02-15T18:38:54.806Z,6.07
2019-02-15T18:41:24.242Z,6.47
2019-02-15T18:43:54.695Z,4.20
2019-02-15T18:46:24.211Z,5.40
2019-02-15T18:48:54.084Z,5.90
2019-02-15T18:51:23.443Z,5.43
2019-02-15T18:53:52.373Z,7.30
2019-02-15T18:56:21.280Z,6.63
2019-02-15T18:58:51.126Z,7.37
2019-02-15T19:01:20.725Z,5.80
2019-02-15T19:03:50.402Z,7.03
2019-02-15T19:06:19.635Z,7.53
2019-02-15T19:08:48.543Z,6.10
2019-02-15T19:11:17.942Z,6.33
2019-02-15T19:13:47.424Z,7.40
2019-02-15T19:16:17.192Z,7.60
2019-02-15T19:18:46.753Z,5.97
2019-02-15T19:21:16.063Z,6.73
2019-02-15T19:23:45.092Z,8.00
2019-02-15T19:26:14.323Z,10.47
2019-02-15T19:28:43.287Z,8.40
2019-02-15T19:31:12.845Z,8.37
2019-02-15T19:33:42.184Z,6.73
2019-02-15T19:36:11.350Z,5.60
2019-02-15T19:38:40.318Z,5.87
2019-02-15T19:41:09.841Z,8.67
2019-02-15T19:43:39.809Z,7.13
2019-02-15T19:46:09.568Z,8.73
2019-02-15T19:48:38.952Z,6.90
2019-02-15T19:51:07.864Z,6.60
2019-02-15T19:53:37.062Z,10.50
2019-02-15T19:56:06.673Z,8.33
2019-02-15T19:58:36.171Z,7.77
2019-02-15T20:01:05.329Z,15.40
2019-02-15T20:03:34.725Z,10.90
2019-02-15T20:06:06.638Z,9.73
2019-02-15T20:08:36.083Z,11.40
2019-02-15T20:11:05.784Z,9.07
2019-02-15T20:13:35.969Z,10.30
2019-02-15T20:16:05.172Z,10.40
2019-02-15T20:18:36.576Z,11.13
2019-02-15T20:21:05.960Z,9.33
2019-02-15T20:23:35.164Z,8.90
2019-02-15T20:26:04.319Z,9.40
2019-02-15T20:28:33.932Z,13.70
2019-02-15T20:31:02.745Z,9.10
2019-02-15T20:33:31.967Z,8.60
2019-02-15T20:36:04.105Z,10.57
2019-02-15T20:38:33.179Z,11.50
2019-02-15T20:41:04.026Z,10.40
2019-02-15T20:43:33.204Z,11.30
2019-02-15T20:46:03.008Z,9.83
2019-02-15T20:48:32.382Z,9.10
2019-02-15T20:51:04.917Z,12.00
2019-02-15T20:53:34.613Z,8.47
2019-02-15T20:56:07.535Z,9.77
2019-02-15T20:58:36.480Z,9.10
2019-02-15T21:01:06.088Z,8.23
2019-02-15T21:03:35.217Z,11.70
2019-02-15T21:06:04.888Z,8.87
2019-02-15T21:08:34.136Z,11.07
2019-02-15T21:11:03.039Z,8.60
2019-02-15T21:13:32.793Z,7.50
2019-02-15T21:16:02.292Z,7.17
2019-02-15T21:18:31.491Z,13.00
2019-02-15T21:21:00.688Z,10.73
2019-02-15T21:23:30.312Z,12.93
2019-02-15T21:26:00.006Z,12.53
2019-02-15T21:28:29.520Z,9.87
2019-02-15T21:30:59.016Z,7.53
2019-02-15T21:33:28.098Z,8.17
2019-02-15T21:35:57.547Z,7.03
2019-02-15T21:38:27.317Z,9.97
2019-02-15T21:40:56.596Z,7.13
2019-02-15T21:43:25.619Z,7.80
2019-02-15T21:45:55.124Z,10.53
2019-02-15T21:48:26.705Z,8.73
2019-02-15T21:50:56.336Z,8.27
2019-02-15T21:53:25.648Z,8.87
2019-02-15T21:55:55.329Z,8.70
2019-02-15T21:58:24.662Z,8.93
2019-02-15T22:00:53.884Z,10.13
2019-02-15T22:03:23.464Z,7.77
2019-02-15T22:05:53.226Z,6.03
2019-02-15T22:08:23.324Z,6.33
2019-02-15T22:10:52.532Z,7.53
2019-02-15T22:13:21.734Z,10.23
2019-02-15T22:15:50.836Z,8.90
2019-02-15T22:18:20.337Z,7.27
2019-02-15T22:20:50.044Z,8.40
2019-02-15T22:23:19.906Z,6.63
2019-02-15T22:25:49.997Z,7.17
2019-02-15T22:28:19.123Z,9.10
2019-02-15T22:30:48.951Z,7.23
2019-02-15T22:33:18.395Z,8.40
2019-02-15T22:35:47.388Z,8.60
2019-02-15T22:38:16.688Z,8.30
2019-02-15T22:40:47.166Z,11.57
2019-02-15T22:43:18.965Z,10.43
2019-02-15T22:45:48.347Z,9.40
2019-02-15T22:48:18.160Z,6.77
2019-02-15T22:50:48.514Z,9.80
2019-02-15T22:53:17.591Z,8.10
2019-02-15T22:55:46.944Z,6.73
2019-02-15T22:58:16.707Z,10.87
2019-02-15T23:00:54.570Z,8.97
2019-02-15T23:03:25.128Z,8.90
2019-02-15T23:05:54.645Z,8.67
2019-02-15T23:08:24.163Z,9.87
2019-02-15T23:10:53.479Z,9.30
2019-02-15T23:13:23.400Z,6.97
2019-02-15T23:15:52.693Z,8.43
2019-02-15T23:18:22.011Z,7.17
2019-02-15T23:20:51.817Z,7.97
2019-02-15T23:23:21.216Z,10.60
2019-02-15T23:25:50.727Z,9.50
2019-02-15T23:28:20.304Z,10.23
2019-02-15T23:30:49.471Z,8.40
2019-02-15T23:33:19.045Z,8.07
2019-02-15T23:35:48.993Z,11.27
2019-02-15T23:38:18.507Z,8.47
2019-02-15T23:40:47.333Z,11.63
2019-02-15T23:43:16.674Z,8.43
2019-02-15T23:45:46.005Z,9.13
2019-02-15T23:48:15.447Z,6.87
2019-02-15T23:50:44.712Z,7.70
2019-02-15T23:53:14.249Z,14.80
2019-02-15T23:55:43.903Z,7.30
2019-02-15T23:58:13.133Z,10.03
